sensor_id;sensor_type;location;lat;lon;timestamp;pressure;altitude;pressure_sealevel;temperature;humidity
78223;BME280;67497;53.058;21.618;2024-02-16T00:01:21;101045.38;;;5.82;80.56
78223;BME280;67497;53.058;21.618;2024-02-16T00:03:21;101042.88;;;5.79;80.60
78223;BME280;67497;53.058;21.618;2024-02-16T00:05:22;101043.19;;;5.74;81.71
78223;BME280;67497;53.058;21.618;2024-02-16T00:07:22;101036.25;;;5.83;81.38
78223;BME280;67497;53.058;21.618;2024-02-16T00:09:23;101041.16;;;5.78;81.26
78223;BME280;67497;53.058;21.618;2024-02-16T00:11:23;101037.22;;;5.82;82.28
78223;BME280;67497;53.058;21.618;2024-02-16T00:13:25;101038.72;;;5.73;82.70
78223;BME280;67497;53.058;21.618;2024-02-16T00:15:26;101036.59;;;5.78;81.60
78223;BME280;67497;53.058;21.618;2024-02-16T00:17:26;101031.91;;;5.80;82.14
78223;BME280;67497;53.058;21.618;2024-02-16T00:19:27;101032.22;;;5.76;82.01
78223;BME280;67497;53.058;21.618;2024-02-16T00:21:28;101038.72;;;5.73;82.54
78223;BME280;67497;53.058;21.618;2024-02-16T00:23:28;101040.81;;;5.70;82.52
78223;BME280;67497;53.058;21.618;2024-02-16T00:25:29;101027.78;;;5.75;81.42
78223;BME280;67497;53.058;21.618;2024-02-16T00:27:29;101034.16;;;5.74;81.63
78223;BME280;67497;53.058;21.618;2024-02-16T00:29:30;101026.78;;;5.76;81.58
78223;BME280;67497;53.058;21.618;2024-02-16T00:31:30;101044.06;;;5.75;82.33
78223;BME280;67497;53.058;21.618;2024-02-16T00:33:31;101038.09;;;5.70;82.77
78223;BME280;67497;53.058;21.618;2024-02-16T00:35:31;101032.84;;;5.67;82.86
78223;BME280;67497;53.058;21.618;2024-02-16T00:37:33;101033.06;;;5.64;83.83
78223;BME280;67497;53.058;21.618;2024-02-16T00:39:35;101033.94;;;5.64;82.85
78223;BME280;67497;53.058;21.618;2024-02-16T00:41:35;101035.59;;;5.67;82.62
78223;BME280;67497;53.058;21.618;2024-02-16T00:43:35;101038.50;;;5.64;83.01
78223;BME280;67497;53.058;21.618;2024-02-16T00:45:36;101037.31;;;5.68;82.75
78223;BME280;67497;53.058;21.618;2024-02-16T00:47:37;101043.53;;;5.70;82.33
78223;BME280;67497;53.058;21.618;2024-02-16T00:49:37;101033.81;;;5.66;82.71
78223;BME280;67497;53.058;21.618;2024-02-16T00:51:39;101038.09;;;5.70;82.56
78223;BME280;67497;53.058;21.618;2024-02-16T00:53:39;101039.06;;;5.69;82.61
78223;BME280;67497;53.058;21.618;2024-02-16T00:55:39;101031.09;;;5.66;82.79
78223;BME280;67497;53.058;21.618;2024-02-16T00:57:41;101040.13;;;5.66;82.55
78223;BME280;67497;53.058;21.618;2024-02-16T00:59:42;101032.94;;;5.65;82.39
78223;BME280;67497;53.058;21.618;2024-02-16T01:01:42;101026.44;;;5.68;82.49
78223;BME280;67497;53.058;21.618;2024-02-16T01:03:43;101018.59;;;5.63;82.02
78223;BME280;67497;53.058;21.618;2024-02-16T01:05:43;101027.63;;;5.64;83.44
78223;BME280;67497;53.058;21.618;2024-02-16T01:07:44;101017.72;;;5.63;83.19
78223;BME280;67497;53.058;21.618;2024-02-16T01:09:44;101025.66;;;5.66;82.25
78223;BME280;67497;53.058;21.618;2024-02-16T01:11:45;101025.66;;;5.66;82.79
78223;BME280;67497;53.058;21.618;2024-02-16T01:13:46;101018.50;;;5.65;82.69
78223;BME280;67497;53.058;21.618;2024-02-16T01:15:46;101019.69;;;5.61;82.88
78223;BME280;67497;53.058;21.618;2024-02-16T01:17:47;101027.06;;;5.59;83.70
78223;BME280;67497;53.058;21.618;2024-02-16T01:19:47;101020.44;;;5.63;82.41
78223;BME280;67497;53.058;21.618;2024-02-16T01:21:47;101027.06;;;5.59;82.77
78223;BME280;67497;53.058;21.618;2024-02-16T01:23:52;101026.31;;;5.57;83.29
78223;BME280;67497;53.058;21.618;2024-02-16T01:25:54;101024.34;;;5.59;82.90
78223;BME280;67497;53.058;21.618;2024-02-16T01:27:54;101027.84;;;5.61;82.62
78223;BME280;67497;53.058;21.618;2024-02-16T01:29:55;101023.38;;;5.60;82.82
78223;BME280;67497;53.058;21.618;2024-02-16T01:31:55;101028.72;;;5.61;82.69
78223;BME280;67497;53.058;21.618;2024-02-16T01:33:56;101031.31;;;5.63;82.55
78223;BME280;67497;53.058;21.618;2024-02-16T01:35:56;101029.59;;;5.62;82.82
78223;BME280;67497;53.058;21.618;2024-02-16T01:37:56;101031.75;;;5.57;83.45
78223;BME280;67497;53.058;21.618;2024-02-16T01:39:57;101030.97;;;5.55;82.92
78223;BME280;67497;53.058;21.618;2024-02-16T01:41:57;101025.84;;;5.50;83.86
78223;BME280;67497;53.058;21.618;2024-02-16T01:43:58;101024.09;;;5.49;83.76
78223;BME280;67497;53.058;21.618;2024-02-16T01:45:59;101029.97;;;5.43;84.24
78223;BME280;67497;53.058;21.618;2024-02-16T01:48:00;101024.63;;;5.41;84.78
78223;BME280;67497;53.058;21.618;2024-02-16T01:50:02;101024.81;;;5.38;83.94
78223;BME280;67497;53.058;21.618;2024-02-16T01:52:02;101030.19;;;5.40;83.88
78223;BME280;67497;53.058;21.618;2024-02-16T01:54:03;101021.47;;;5.35;84.38
78223;BME280;67497;53.058;21.618;2024-02-16T01:56:04;101022.63;;;5.31;84.64
78223;BME280;67497;53.058;21.618;2024-02-16T01:58:05;101022.19;;;5.24;84.58
78223;BME280;67497;53.058;21.618;2024-02-16T02:00:05;101021.59;;;5.19;84.83
78223;BME280;67497;53.058;21.618;2024-02-16T02:02:07;101005.94;;;5.10;84.43
78223;BME280;67497;53.058;21.618;2024-02-16T02:04:08;101014.38;;;5.06;84.66
78223;BME280;67497;53.058;21.618;2024-02-16T02:06:08;101017.00;;;5.07;84.62
78223;BME280;67497;53.058;21.618;2024-02-16T02:08:10;101019.16;;;5.02;84.61
78223;BME280;67497;53.058;21.618;2024-02-16T02:10:10;101015.44;;;5.03;84.93
78223;BME280;67497;53.058;21.618;2024-02-16T02:12:13;101013.91;;;4.99;84.70
78223;BME280;67497;53.058;21.618;2024-02-16T02:14:13;101014.00;;;4.98;84.81
78223;BME280;67497;53.058;21.618;2024-02-16T02:16:15;101012.16;;;4.98;84.74
78223;BME280;67497;53.058;21.618;2024-02-16T02:18:16;101008.56;;;4.98;84.57
78223;BME280;67497;53.058;21.618;2024-02-16T02:20:17;101010.44;;;4.97;84.43
78223;BME280;67497;53.058;21.618;2024-02-16T02:22:20;101007.91;;;4.94;84.61
78223;BME280;67497;53.058;21.618;2024-02-16T02:24:21;101012.56;;;4.92;84.83
78223;BME280;67497;53.058;21.618;2024-02-16T02:26:22;101013.63;;;4.90;84.87
78223;BME280;67497;53.058;21.618;2024-02-16T02:28:22;101018.22;;;4.89;85.05
78223;BME280;67497;53.058;21.618;2024-02-16T02:30:24;101016.66;;;4.85;85.53
78223;BME280;67497;53.058;21.618;2024-02-16T02:32:24;101016.66;;;4.85;84.84
78223;BME280;67497;53.058;21.618;2024-02-16T02:34:25;101014.13;;;4.82;85.45
78223;BME280;67497;53.058;21.618;2024-02-16T02:36:26;101007.06;;;4.79;85.47
78223;BME280;67497;53.058;21.618;2024-02-16T02:38:26;101013.56;;;4.77;85.46
78223;BME280;67497;53.058;21.618;2024-02-16T02:40:27;101017.94;;;4.79;85.29
78223;BME280;67497;53.058;21.618;2024-02-16T02:42:27;101013.56;;;4.77;85.44
78223;BME280;67497;53.058;21.618;2024-02-16T02:44:28;101007.25;;;4.76;85.46
78223;BME280;67497;53.058;21.618;2024-02-16T02:46:31;101010.97;;;4.75;85.51
78223;BME280;67497;53.058;21.618;2024-02-16T02:48:31;101012.03;;;4.73;85.93
78223;BME280;67497;53.058;21.618;2024-02-16T02:50:32;101014.94;;;4.70;85.98
78223;BME280;67497;53.058;21.618;2024-02-16T02:52:32;101013.69;;;4.75;86.00
78223;BME280;67497;53.058;21.618;2024-02-16T02:54:33;101006.50;;;4.74;85.76
78223;BME280;67497;53.058;21.618;2024-02-16T02:56:34;101012.81;;;4.75;85.76
78223;BME280;67497;53.058;21.618;2024-02-16T02:58:34;101005.06;;;4.69;85.71
78223;BME280;67497;53.058;21.618;2024-02-16T03:00:35;101018.50;;;4.70;85.92
78223;BME280;67497;53.058;21.618;2024-02-16T03:02:35;101015.03;;;4.68;85.93
78223;BME280;67497;53.058;21.618;2024-02-16T03:04:37;101020.56;;;4.67;86.66
78223;BME280;67497;53.058;21.618;2024-02-16T03:06:37;101017.09;;;4.65;86.51
78223;BME280;67497;53.058;21.618;2024-02-16T03:08:38;101015.16;;;4.67;86.35
78223;BME280;67497;53.058;21.618;2024-02-16T03:10:38;101014.38;;;4.65;86.72
78223;BME280;67497;53.058;21.618;2024-02-16T03:12:39;101016.97;;;4.66;86.48
78223;BME280;67497;53.058;21.618;2024-02-16T03:14:39;101008.97;;;4.65;86.90
78223;BME280;67497;53.058;21.618;2024-02-16T03:16:40;101019.59;;;4.68;86.51
78223;BME280;67497;53.058;21.618;2024-02-16T03:18:40;101019.38;;;4.71;86.74
78223;BME280;67497;53.058;21.618;2024-02-16T03:20:41;101013.97;;;4.71;86.47
78223;BME280;67497;53.058;21.618;2024-02-16T03:22:45;101011.34;;;4.69;86.71
78223;BME280;67497;53.058;21.618;2024-02-16T03:24:46;101013.19;;;4.69;86.63
78223;BME280;67497;53.058;21.618;2024-02-16T03:26:48;101010.47;;;4.69;86.52
78223;BME280;67497;53.058;21.618;2024-02-16T03:28:48;101011.16;;;4.72;86.36
78223;BME280;67497;53.058;21.618;2024-02-16T03:30:49;101005.75;;;4.72;86.19
78223;BME280;67497;53.058;21.618;2024-02-16T03:32:49;101012.03;;;4.73;86.55
78223;BME280;67497;53.058;21.618;2024-02-16T03:34:50;101011.16;;;4.72;86.63
78223;BME280;67497;53.058;21.618;2024-02-16T03:36:51;101010.47;;;4.69;86.41
78223;BME280;67497;53.058;21.618;2024-02-16T03:38:51;101014.16;;;4.68;86.95
78223;BME280;67497;53.058;21.618;2024-02-16T03:40:51;101011.44;;;4.68;86.53
78223;BME280;67497;53.058;21.618;2024-02-16T03:42:52;101009.34;;;4.73;86.04
78223;BME280;67497;53.058;21.618;2024-02-16T03:44:52;101010.47;;;4.69;86.57
78223;BME280;67497;53.058;21.618;2024-02-16T03:46:53;101007.00;;;4.67;86.38
78223;BME280;67497;53.058;21.618;2024-02-16T03:48:53;101001.66;;;4.65;86.10
78223;BME280;67497;53.058;21.618;2024-02-16T03:50:53;101006.44;;;4.62;86.44
78223;BME280;67497;53.058;21.618;2024-02-16T03:52:54;100999.13;;;4.62;86.22
78223;BME280;67497;53.058;21.618;2024-02-16T03:54:54;101006.44;;;4.62;86.48
78223;BME280;67497;53.058;21.618;2024-02-16T03:56:55;101005.63;;;4.60;86.35
78223;BME280;67497;53.058;21.618;2024-02-16T03:58:55;100995.84;;;4.57;86.51
78223;BME280;67497;53.058;21.618;2024-02-16T04:00:56;100999.75;;;4.53;86.57
78223;BME280;67497;53.058;21.618;2024-02-16T04:02:56;101008.09;;;4.50;86.88
78223;BME280;67497;53.058;21.618;2024-02-16T04:04:57;101005.25;;;4.52;86.49
78223;BME280;67497;53.058;21.618;2024-02-16T04:06:57;101014.66;;;4.46;86.54
78223;BME280;67497;53.058;21.618;2024-02-16T04:08:57;101011.00;;;4.47;86.63
78223;BME280;67497;53.058;21.618;2024-02-16T04:10:58;101009.34;;;4.45;87.03
78223;BME280;67497;53.058;21.618;2024-02-16T04:12:58;101005.75;;;4.44;86.68
78223;BME280;67497;53.058;21.618;2024-02-16T04:14:59;101004.13;;;4.42;86.79
78223;BME280;67497;53.058;21.618;2024-02-16T04:16:59;101009.22;;;4.46;86.76
78223;BME280;67497;53.058;21.618;2024-02-16T04:19:00;101008.38;;;4.46;86.61
78223;BME280;67497;53.058;21.618;2024-02-16T04:21:00;101008.16;;;4.49;86.58
78223;BME280;67497;53.058;21.618;2024-02-16T04:23:01;101005.56;;;4.47;86.57
78223;BME280;67497;53.058;21.618;2024-02-16T04:25:01;101007.41;;;4.47;86.67
78223;BME280;67497;53.058;21.618;2024-02-16T04:27:01;101001.09;;;4.46;86.87
78223;BME280;67497;53.058;21.618;2024-02-16T04:29:03;100998.59;;;4.43;87.15
78223;BME280;67497;53.058;21.618;2024-02-16T04:31:04;101003.03;;;4.44;86.93
78223;BME280;67497;53.058;21.618;2024-02-16T04:33:05;100999.38;;;4.45;86.69
78223;BME280;67497;53.058;21.618;2024-02-16T04:35:05;101004.41;;;4.51;86.81
78223;BME280;67497;53.058;21.618;2024-02-16T04:37:06;101005.06;;;4.55;86.61
78223;BME280;67497;53.058;21.618;2024-02-16T04:39:07;101005.38;;;4.50;86.90
78223;BME280;67497;53.058;21.618;2024-02-16T04:41:10;101002.53;;;4.52;86.98
78223;BME280;67497;53.058;21.618;2024-02-16T04:43:10;101002.53;;;4.52;86.79
78223;BME280;67497;53.058;21.618;2024-02-16T04:45:11;100997.31;;;4.49;86.56
78223;BME280;67497;53.058;21.618;2024-02-16T04:47:12;101005.56;;;4.47;86.69
78223;BME280;67497;53.058;21.618;2024-02-16T04:49:13;101005.00;;;4.42;86.73
78223;BME280;67497;53.058;21.618;2024-02-16T04:51:14;101008.78;;;4.40;86.80
78223;BME280;67497;53.058;21.618;2024-02-16T04:53:14;101018.63;;;4.41;86.67
78223;BME280;67497;53.058;21.618;2024-02-16T04:55:15;101009.47;;;4.43;86.29
78223;BME280;67497;53.058;21.618;2024-02-16T04:57:15;101021.34;;;4.41;86.60
78223;BME280;67497;53.058;21.618;2024-02-16T04:59:19;101023.03;;;4.43;86.30
78223;BME280;67497;53.058;21.618;2024-02-16T05:01:19;101020.31;;;4.43;86.34
78223;BME280;67497;53.058;21.618;2024-02-16T05:03:20;101020.00;;;4.48;85.92
78223;BME280;67497;53.058;21.618;2024-02-16T05:05:20;101022.03;;;4.44;86.16
78223;BME280;67497;53.058;21.618;2024-02-16T05:07:20;101011.88;;;4.48;85.83
78223;BME280;67497;53.058;21.618;2024-02-16T05:09:21;101018.81;;;4.52;85.86
78223;BME280;67497;53.058;21.618;2024-02-16T05:11:23;101018.81;;;4.52;86.01
78223;BME280;67497;53.058;21.618;2024-02-16T05:13:27;101009.72;;;4.53;85.45
78223;BME280;67497;53.058;21.618;2024-02-16T05:15:28;101013.59;;;4.49;85.54
78223;BME280;67497;53.058;21.618;2024-02-16T05:17:28;101012.81;;;4.47;85.58
78223;BME280;67497;53.058;21.618;2024-02-16T05:19:32;101021.16;;;4.44;86.22
78223;BME280;67497;53.058;21.618;2024-02-16T05:21:32;101012.16;;;4.43;86.21
78223;BME280;67497;53.058;21.618;2024-02-16T05:23:34;101018.94;;;4.50;85.85
78223;BME280;67497;53.058;21.618;2024-02-16T05:25:34;101027.38;;;4.46;86.16
78223;BME280;67497;53.058;21.618;2024-02-16T05:27:35;101018.06;;;4.50;85.47
78223;BME280;67497;53.058;21.618;2024-02-16T05:29:35;101019.13;;;4.47;85.60
78223;BME280;67497;53.058;21.618;2024-02-16T05:31:35;101031.81;;;4.47;85.92
78223;BME280;67497;53.058;21.618;2024-02-16T05:33:36;101031.94;;;4.45;85.93
78223;BME280;67497;53.058;21.618;2024-02-16T05:35:36;101029.22;;;4.45;86.02
78223;BME280;67497;53.058;21.618;2024-02-16T05:37:47;101032.69;;;4.47;85.92
78223;BME280;67497;53.058;21.618;2024-02-16T05:39:49;101025.50;;;4.46;85.69
78223;BME280;67497;53.058;21.618;2024-02-16T05:42:08;101020.88;;;4.48;85.86
78223;BME280;67497;53.058;21.618;2024-02-16T05:44:08;101016.22;;;4.50;85.29
78223;BME280;67497;53.058;21.618;2024-02-16T05:46:13;101024.34;;;4.50;85.17
78223;BME280;67497;53.058;21.618;2024-02-16T05:48:14;101017.09;;;4.51;84.98
78223;BME280;67497;53.058;21.618;2024-02-16T05:50:15;101035.28;;;4.49;85.42
78223;BME280;67497;53.058;21.618;2024-02-16T05:52:15;101035.28;;;4.49;85.28
78223;BME280;67497;53.058;21.618;2024-02-16T05:54:18;101044.81;;;4.56;85.35
78223;BME280;67497;53.058;21.618;2024-02-16T05:56:19;101037.44;;;4.58;85.59
78223;BME280;67497;53.058;21.618;2024-02-16T05:58:19;101049.34;;;4.55;84.82
78223;BME280;67497;53.058;21.618;2024-02-16T06:00:20;101042.28;;;4.53;85.39
78223;BME280;67497;53.058;21.618;2024-02-16T06:02:21;101038.41;;;4.57;85.06
78223;BME280;67497;53.058;21.618;2024-02-16T06:04:25;101035.28;;;4.49;84.84
78223;BME280;67497;53.058;21.618;2024-02-16T06:06:26;101040.53;;;4.52;84.71
78223;BME280;67497;53.058;21.618;2024-02-16T06:08:27;101036.66;;;4.56;84.75
78223;BME280;67497;53.058;21.618;2024-02-16T06:10:27;101043.16;;;4.53;84.17
78223;BME280;67497;53.058;21.618;2024-02-16T06:12:27;101047.72;;;4.53;84.08
78223;BME280;67497;53.058;21.618;2024-02-16T06:14:28;101040.34;;;4.55;84.75
78223;BME280;67497;53.058;21.618;2024-02-16T06:16:28;101038.00;;;4.63;83.50
78223;BME280;67497;53.058;21.618;2024-02-16T06:18:28;101058.00;;;4.62;84.07
78223;BME280;67497;53.058;21.618;2024-02-16T06:20:29;101051.31;;;4.67;83.13
78223;BME280;67497;53.058;21.618;2024-02-16T06:22:30;101043.72;;;4.72;82.90
78223;BME280;67497;53.058;21.618;2024-02-16T06:24:32;101049.94;;;4.74;82.53
78223;BME280;67497;53.058;21.618;2024-02-16T06:26:34;101050.03;;;4.73;82.67
78223;BME280;67497;53.058;21.618;2024-02-16T06:28:35;101051.31;;;4.67;82.96
78223;BME280;67497;53.058;21.618;2024-02-16T06:30:35;101070.19;;;4.69;83.23
78223;BME280;67497;53.058;21.618;2024-02-16T06:32:36;101066.00;;;4.77;82.50
78223;BME280;67497;53.058;21.618;2024-02-16T06:34:36;101071.75;;;4.73;82.68
78223;BME280;67497;53.058;21.618;2024-02-16T06:36:36;101063.69;;;4.71;82.97
78223;BME280;67497;53.058;21.618;2024-02-16T06:38:37;101073.66;;;4.71;83.65
78223;BME280;67497;53.058;21.618;2024-02-16T06:40:37;101072.59;;;4.73;83.78
78223;BME280;67497;53.058;21.618;2024-02-16T06:42:38;101080.09;;;4.70;84.11
78223;BME280;67497;53.058;21.618;2024-02-16T06:44:39;101068.91;;;4.74;83.88
78223;BME280;67497;53.058;21.618;2024-02-16T06:46:41;101066.00;;;4.77;84.38
78223;BME280;67497;53.058;21.618;2024-02-16T06:48:41;101072.31;;;4.78;84.34
78223;BME280;67497;53.058;21.618;2024-02-16T06:50:42;101068.53;;;4.80;82.95
78223;BME280;67497;53.058;21.618;2024-02-16T06:52:42;101075.50;;;4.84;83.22
78223;BME280;67497;53.058;21.618;2024-02-16T06:54:43;101077.72;;;4.92;83.60
78223;BME280;67497;53.058;21.618;2024-02-16T06:56:43;101068.81;;;4.90;84.04
78223;BME280;67497;53.058;21.618;2024-02-16T06:58:45;101073.66;;;4.99;82.79
78223;BME280;67497;53.058;21.618;2024-02-16T07:00:45;101074.31;;;5.03;84.02
78223;BME280;67497;53.058;21.618;2024-02-16T07:02:46;101076.72;;;5.07;82.29
78223;BME280;67497;53.058;21.618;2024-02-16T07:04:46;101075.47;;;5.13;81.75
78223;BME280;67497;53.058;21.618;2024-02-16T07:06:48;101071.56;;;5.17;81.62
78223;BME280;67497;53.058;21.618;2024-02-16T07:08:48;101079.44;;;5.21;81.18
78223;BME280;67497;53.058;21.618;2024-02-16T07:10:48;101075.63;;;5.24;82.51
78223;BME280;67497;53.058;21.618;2024-02-16T07:12:51;101077.28;;;5.26;80.94
78223;BME280;67497;53.058;21.618;2024-02-16T07:14:52;101077.28;;;5.26;80.05
78223;BME280;67497;53.058;21.618;2024-02-16T07:16:52;101082.38;;;5.31;80.13
78223;BME280;67497;53.058;21.618;2024-02-16T07:18:52;101080.91;;;5.39;80.02
78223;BME280;67497;53.058;21.618;2024-02-16T07:20:53;101078.88;;;5.43;80.34
78223;BME280;67497;53.058;21.618;2024-02-16T07:22:53;101076.03;;;5.44;80.18
78223;BME280;67497;53.058;21.618;2024-02-16T07:24:54;101079.63;;;5.45;79.64
78223;BME280;67497;53.058;21.618;2024-02-16T07:26:54;101078.56;;;5.48;79.44
78223;BME280;67497;53.058;21.618;2024-02-16T07:28:54;101086.72;;;5.48;80.41
78223;BME280;67497;53.058;21.618;2024-02-16T07:30:55;101080.59;;;5.44;79.49
78223;BME280;67497;53.058;21.618;2024-02-16T07:32:55;101086.91;;;5.44;78.97
78223;BME280;67497;53.058;21.618;2024-02-16T07:34:59;101087.47;;;5.50;79.29
78223;BME280;67497;53.058;21.618;2024-02-16T07:37:00;101089.66;;;5.57;79.50
78223;BME280;67497;53.058;21.618;2024-02-16T07:39:00;101091.81;;;5.52;78.93
78223;BME280;67497;53.058;21.618;2024-02-16T07:41:01;101089.97;;;5.53;78.77
78223;BME280;67497;53.058;21.618;2024-02-16T07:43:02;101089.59;;;5.59;79.29
78223;BME280;67497;53.058;21.618;2024-02-16T07:45:03;101089.59;;;5.59;78.56
78223;BME280;67497;53.058;21.618;2024-02-16T07:47:05;101083.06;;;5.61;78.35
78223;BME280;67497;53.058;21.618;2024-02-16T07:49:05;101085.25;;;5.69;78.62
78223;BME280;67497;53.058;21.618;2024-02-16T07:51:06;101082.34;;;5.72;77.81
78223;BME280;67497;53.058;21.618;2024-02-16T07:53:08;101079.41;;;5.75;78.08
78223;BME280;67497;53.058;21.618;2024-02-16T07:55:11;101082.91;;;5.77;79.00
78223;BME280;67497;53.058;21.618;2024-02-16T07:57:12;101081.13;;;5.76;78.22
78223;BME280;67497;53.058;21.618;2024-02-16T07:59:12;101080.72;;;5.82;77.47
78223;BME280;67497;53.058;21.618;2024-02-16T08:01:12;101085.09;;;5.84;78.07
78223;BME280;67497;53.058;21.618;2024-02-16T08:03:16;101074.91;;;5.88;76.81
78223;BME280;67497;53.058;21.618;2024-02-16T08:05:16;101080.34;;;5.88;77.98
78223;BME280;67497;53.058;21.618;2024-02-16T08:07:19;101071.13;;;5.90;78.08
78223;BME280;67497;53.058;21.618;2024-02-16T08:09:20;101086.69;;;6.01;76.95
78223;BME280;67497;53.058;21.618;2024-02-16T08:11:20;101078.09;;;5.94;77.20
78223;BME280;67497;53.058;21.618;2024-02-16T08:13:21;101079.53;;;6.00;76.42
78223;BME280;67497;53.058;21.618;2024-02-16T08:15:22;101072.13;;;6.15;76.36
78223;BME280;67497;53.058;21.618;2024-02-16T08:17:25;101080.22;;;6.29;76.40
78223;BME280;67497;53.058;21.618;2024-02-16T08:19:37;101069.28;;;6.92;75.43
78223;BME280;67497;53.058;21.618;2024-02-16T08:21:37;101074.59;;;8.01;71.65
78223;BME280;67497;53.058;21.618;2024-02-16T08:23:38;101071.09;;;8.90;67.32
78223;BME280;67497;53.058;21.618;2024-02-16T08:25:38;101066.44;;;9.35;65.07
78223;BME280;67497;53.058;21.618;2024-02-16T08:27:39;101069.25;;;9.88;63.54
78223;BME280;67497;53.058;21.618;2024-02-16T08:29:39;101070.03;;;10.22;62.68
78223;BME280;67497;53.058;21.618;2024-02-16T08:31:39;101068.66;;;9.84;63.17
78223;BME280;67497;53.058;21.618;2024-02-16T08:33:40;101063.38;;;9.60;64.36
78223;BME280;67497;53.058;21.618;2024-02-16T08:35:40;101060.88;;;9.26;62.84
78223;BME280;67497;53.058;21.618;2024-02-16T08:37:41;101052.69;;;8.81;66.35
78223;BME280;67497;53.058;21.618;2024-02-16T08:39:41;101064.63;;;8.80;67.22
78223;BME280;67497;53.058;21.618;2024-02-16T08:41:42;101068.19;;;8.48;67.44
78223;BME280;67497;53.058;21.618;2024-02-16T08:43:44;101069.06;;;8.48;68.18
78223;BME280;67497;53.058;21.618;2024-02-16T08:45:44;101065.34;;;8.49;67.97
78223;BME280;67497;53.058;21.618;2024-02-16T08:47:45;101069.94;;;8.49;66.88
78223;BME280;67497;53.058;21.618;2024-02-16T08:49:46;101070.81;;;8.60;67.78
78223;BME280;67497;53.058;21.618;2024-02-16T08:51:47;101059.16;;;8.80;66.62
78223;BME280;67497;53.058;21.618;2024-02-16T08:53:48;101058.94;;;8.94;66.31
78223;BME280;67497;53.058;21.618;2024-02-16T08:55:48;101071.56;;;9.18;67.98
78223;BME280;67497;53.058;21.618;2024-02-16T08:57:48;101068.59;;;9.21;64.78
78223;BME280;67497;53.058;21.618;2024-02-16T08:59:50;101069.31;;;9.23;64.50
78223;BME280;67497;53.058;21.618;2024-02-16T09:01:50;101068.59;;;9.10;65.56
78223;BME280;67497;53.058;21.618;2024-02-16T09:03:50;101065.72;;;9.22;66.61
78223;BME280;67497;53.058;21.618;2024-02-16T09:05:54;101066.56;;;9.34;67.62
78223;BME280;67497;53.058;21.618;2024-02-16T09:07:54;101068.53;;;9.54;65.23
78223;BME280;67497;53.058;21.618;2024-02-16T09:09:55;101061.06;;;9.56;67.84
78223;BME280;67497;53.058;21.618;2024-02-16T09:11:56;101060.97;;;9.78;66.07
78223;BME280;67497;53.058;21.618;2024-02-16T09:13:57;101055.13;;;10.03;64.11
78223;BME280;67497;53.058;21.618;2024-02-16T09:15:58;101054.16;;;10.25;64.93
78223;BME280;67497;53.058;21.618;2024-02-16T09:17:58;101053.28;;;10.25;63.37
78223;BME280;67497;53.058;21.618;2024-02-16T09:19:58;101057.22;;;9.79;64.11
78223;BME280;67497;53.058;21.618;2024-02-16T09:21:59;101049.22;;;9.55;65.54
78223;BME280;67497;53.058;21.618;2024-02-16T09:24:03;101049.31;;;9.65;66.55
78223;BME280;67497;53.058;21.618;2024-02-16T09:26:04;101047.09;;;9.70;64.71
78223;BME280;67497;53.058;21.618;2024-02-16T09:28:05;101046.31;;;9.68;64.54
78223;BME280;67497;53.058;21.618;2024-02-16T09:30:06;101040.97;;;9.98;66.37
78223;BME280;67497;53.058;21.618;2024-02-16T09:32:06;101047.91;;;10.13;64.93
78223;BME280;67497;53.058;21.618;2024-02-16T09:34:07;101044.47;;;10.42;64.70
78223;BME280;67497;53.058;21.618;2024-02-16T09:36:07;101050.53;;;10.66;64.30
78223;BME280;67497;53.058;21.618;2024-02-16T09:38:08;101049.34;;;10.59;61.75
78223;BME280;67497;53.058;21.618;2024-02-16T09:40:12;101041.16;;;10.89;61.89
78223;BME280;67497;53.058;21.618;2024-02-16T09:42:13;101036.75;;;11.07;62.18
78223;BME280;67497;53.058;21.618;2024-02-16T09:44:14;101034.94;;;11.36;61.99
78223;BME280;67497;53.058;21.618;2024-02-16T09:46:16;101040.03;;;11.51;59.78
78223;BME280;67497;53.058;21.618;2024-02-16T09:48:17;101041.97;;;11.69;60.34
78223;BME280;67497;53.058;21.618;2024-02-16T09:50:17;101040.94;;;11.89;57.39
78223;BME280;67497;53.058;21.618;2024-02-16T09:52:18;101039.81;;;11.73;58.63
78223;BME280;67497;53.058;21.618;2024-02-16T09:54:18;101033.44;;;11.82;61.54
78223;BME280;67497;53.058;21.618;2024-02-16T09:56:19;101031.44;;;11.93;59.76
78223;BME280;67497;53.058;21.618;2024-02-16T09:58:20;101028.66;;;12.22;58.97
78223;BME280;67497;53.058;21.618;2024-02-16T10:00:21;101030.09;;;12.26;58.31
78223;BME280;67497;53.058;21.618;2024-02-16T10:02:21;101027.63;;;12.42;60.46
78223;BME280;67497;53.058;21.618;2024-02-16T10:04:23;101038.31;;;12.45;56.89
78223;BME280;67497;53.058;21.618;2024-02-16T10:06:24;101027.31;;;12.45;58.15
78223;BME280;67497;53.058;21.618;2024-02-16T10:08:24;101026.03;;;12.30;57.80
78223;BME280;67497;53.058;21.618;2024-02-16T10:10:26;101023.63;;;11.98;58.94
78223;BME280;67497;53.058;21.618;2024-02-16T10:12:27;101023.63;;;11.89;57.84
78223;BME280;67497;53.058;21.618;2024-02-16T10:14:29;101025.34;;;11.90;60.69
78223;BME280;67497;53.058;21.618;2024-02-16T10:16:32;101023.63;;;11.89;59.53
78223;BME280;67497;53.058;21.618;2024-02-16T10:18:33;101015.81;;;12.04;59.24
78223;BME280;67497;53.058;21.618;2024-02-16T10:20:35;101016.09;;;12.00;59.09
78223;BME280;67497;53.058;21.618;2024-02-16T10:22:35;101025.50;;;11.98;59.23
78223;BME280;67497;53.058;21.618;2024-02-16T10:24:36;101015.38;;;12.08;60.71
78223;BME280;67497;53.058;21.618;2024-02-16T10:26:38;101017.25;;;12.17;58.93
78223;BME280;67497;53.058;21.618;2024-02-16T10:28:39;101020.69;;;12.19;59.35
78223;BME280;67497;53.058;21.618;2024-02-16T10:30:41;101013.22;;;11.92;59.13